Kano, Nigeria
Current Conditions -  °F | °C
As of 6:00 PM on Wednesday 26 Nov 2014 (Local Time) from DNKN Reporting Station
Haze Haze  
Wind Chill: 79°   Ceiling: Unl
Heat Index: 79°   Visibility: 3mi
Dew Point: 48°   Wind: 8mph
Humidity: 34%   Direction: 30°NNE
Pressure: 29.91"   Gusts: NA
Location:  12°N, 8.52°E
Report Text: DNKN 261700Z 03007KT 5000 HZ NSC 26/09 Q1013 NOSIG
Loading
Personal Weather Stations






























Interactive Weather Map New forecast layout! Learn more

10-Day Weather Forecast

Advertisements
Track Severe Weather on mobile